EmailTwitter


Observations de surface / Québec / LFBZ

Régions: Québec | Canada | États-Unis | Europe | France | UK | Elsewhere
Station
Affichage
Infos & localisation pour LFBZ | Aide pour décoder les METARs

Observations prises le 2017-05-24 à 06H00 UTC à BIARRITZ/ANGLET, FR (LFBZ)

Obstacle(s) à la visibilité: bancs de brouillard.

Température: 13.0 Celsius

Point de rosée: 13.0 Celsius

Humidité relative: 100%

Vents: Calme à 0 km/h ou 0 noeuds.

Pression au niveau moyen de la mer: 102.20 kilopascals.

Visibilité horizontale: 3.11 milles terrestres ou 4.97 kilomètres.

Observation METAR:

LFBZ 240600Z AUTO 00000KT 5000 0500 R09/P2000 R27/1100D BCFG VV/// 13/13 Q1022

BECMG NSC=